createdAt,value
2018-05-21T00:00:04.531Z,16.70
2018-05-21T00:02:32.035Z,16.70
2018-05-21T00:04:59.560Z,16.60
2018-05-21T00:07:27.089Z,16.60
2018-05-21T00:09:54.580Z,16.50
2018-05-21T00:12:22.091Z,16.50
2018-05-21T00:14:49.625Z,16.60
2018-05-21T00:17:17.136Z,16.70
2018-05-21T00:19:44.898Z,16.70
2018-05-21T00:22:12.424Z,16.70
2018-05-21T00:24:42.178Z,16.60
2018-05-21T00:27:09.686Z,16.70
2018-05-21T00:29:37.224Z,16.60
2018-05-21T00:32:04.724Z,16.60
2018-05-21T00:34:33.004Z,16.60
2018-05-21T00:37:01.305Z,16.60
2018-05-21T00:39:28.811Z,16.50
2018-05-21T00:41:56.880Z,16.50
2018-05-21T00:44:25.194Z,16.40
2018-05-21T00:46:52.713Z,16.40
2018-05-21T00:49:20.246Z,16.50
2018-05-21T00:51:47.752Z,16.50
2018-05-21T00:54:15.253Z,16.40
2018-05-21T00:56:43.908Z,16.50
2018-05-21T00:59:12.175Z,16.40
2018-05-21T01:01:40.452Z,16.40
2018-05-21T01:04:07.998Z,16.40
2018-05-21T01:06:35.509Z,16.40
2018-05-21T01:09:03.015Z,16.40
2018-05-21T01:11:31.362Z,16.40
2018-05-21T01:13:59.694Z,16.40
2018-05-21T01:16:27.957Z,16.30
2018-05-21T01:18:55.489Z,16.30
2018-05-21T01:21:22.989Z,16.40
2018-05-21T01:23:51.248Z,16.40
2018-05-21T01:26:22.558Z,16.30
2018-05-21T01:28:50.065Z,16.30
2018-05-21T01:31:18.337Z,16.30
2018-05-21T01:33:47.232Z,16.20
2018-05-21T01:36:15.505Z,16.20
2018-05-21T01:38:43.009Z,16.20
2018-05-21T01:41:10.532Z,16.40
2018-05-21T01:43:38.797Z,16.20
2018-05-21T01:46:06.489Z,16.20
2018-05-21T01:48:34.013Z,16.20
2018-05-21T01:51:02.461Z,16.20
2018-05-21T01:53:29.959Z,16.30
2018-05-21T01:55:57.473Z,16.30
2018-05-21T01:58:24.980Z,16.30
2018-05-21T02:00:54.078Z,16.20
2018-05-21T02:03:22.556Z,16.30
2018-05-21T02:05:50.825Z,16.20
2018-05-21T02:08:19.066Z,16.10
2018-05-21T02:10:48.105Z,16.20
2018-05-21T02:13:16.381Z,16.20
2018-05-21T02:15:43.917Z,16.20
2018-05-21T02:18:12.115Z,16.10
2018-05-21T02:20:39.616Z,16.20
2018-05-21T02:23:07.146Z,16.10
2018-05-21T02:25:35.412Z,16.10
2018-05-21T02:28:03.703Z,16.00
2018-05-21T02:30:32.549Z,16.00
2018-05-21T02:33:00.053Z,16.00
2018-05-21T02:35:28.378Z,16.00
2018-05-21T02:37:55.881Z,16.00
2018-05-21T02:40:24.153Z,16.00
2018-05-21T02:42:52.436Z,16.00
2018-05-21T02:45:20.727Z,16.00
2018-05-21T02:47:48.252Z,15.90
2018-05-21T02:50:16.487Z,15.90
2018-05-21T02:52:44.372Z,15.90
2018-05-21T02:55:11.909Z,15.90
2018-05-21T02:57:39.404Z,15.90
2018-05-21T03:00:06.928Z,15.80
2018-05-21T03:02:34.428Z,15.70
2018-05-21T03:05:01.953Z,15.70
2018-05-21T03:07:29.463Z,15.60
2018-05-21T03:09:57.742Z,15.50
2018-05-21T03:12:30.005Z,15.50
2018-05-21T03:14:58.276Z,15.50
2018-05-21T03:17:26.339Z,15.40
2018-05-21T03:19:53.868Z,15.40
2018-05-21T03:22:21.373Z,15.30
2018-05-21T03:24:48.868Z,15.30
2018-05-21T03:27:16.396Z,15.30
2018-05-21T03:29:44.975Z,15.40
2018-05-21T03:32:13.256Z,15.30
2018-05-21T03:34:42.001Z,15.30
2018-05-21T03:37:09.511Z,15.30
2018-05-21T03:39:37.780Z,15.30
2018-05-21T03:42:06.068Z,15.30
2018-05-21T03:44:34.330Z,15.30
2018-05-21T03:47:02.597Z,15.30
2018-05-21T03:49:30.446Z,15.30
2018-05-21T03:51:58.280Z,15.30
2018-05-21T03:54:26.646Z,15.30
2018-05-21T03:56:54.186Z,15.30
2018-05-21T03:59:34.313Z,15.30
2018-05-21T04:02:13.709Z,15.30
2018-05-21T04:04:42.023Z,15.30
2018-05-21T04:07:09.551Z,15.30
2018-05-21T04:09:37.093Z,15.20
2018-05-21T04:12:05.413Z,15.10
2018-05-21T04:14:32.926Z,15.20
2018-05-21T04:17:00.948Z,15.30
2018-05-21T04:19:35.156Z,15.30
2018-05-21T04:22:03.476Z,15.40
2018-05-21T04:24:31.940Z,15.40
2018-05-21T04:27:00.214Z,15.40
2018-05-21T04:29:28.465Z,15.40
2018-05-21T04:31:56.729Z,15.40
2018-05-21T04:34:24.229Z,15.40
2018-05-21T04:36:51.954Z,15.40
2018-05-21T04:39:19.456Z,15.30
2018-05-21T04:41:46.981Z,15.40
2018-05-21T04:44:14.521Z,15.50
2018-05-21T04:46:42.021Z,15.60
2018-05-21T04:49:09.740Z,15.60
2018-05-21T04:51:38.102Z,15.50
2018-05-21T04:54:05.617Z,15.50
2018-05-21T04:56:33.730Z,15.40
2018-05-21T04:59:01.625Z,15.30
2018-05-21T05:01:29.394Z,15.40
2018-05-21T05:03:56.957Z,15.30
2018-05-21T05:06:25.038Z,15.40
2018-05-21T05:08:52.559Z,15.50
2018-05-21T05:11:20.063Z,15.50
2018-05-21T05:13:47.589Z,15.50
2018-05-21T05:16:15.146Z,15.50
2018-05-21T05:18:42.660Z,15.60
2018-05-21T05:21:10.223Z,15.60
2018-05-21T05:23:37.713Z,15.70
2018-05-21T05:26:05.209Z,15.80
2018-05-21T05:28:32.777Z,15.90
2018-05-21T05:31:00.298Z,16.00
2018-05-21T05:33:27.813Z,16.00
2018-05-21T05:35:55.362Z,16.10
2018-05-21T05:38:22.917Z,16.20
2018-05-21T05:40:50.425Z,16.30
2018-05-21T05:43:20.102Z,16.30
2018-05-21T05:45:48.273Z,16.30
2018-05-21T05:48:15.772Z,16.30
2018-05-21T05:50:43.277Z,16.30
2018-05-21T05:53:10.809Z,16.40
2018-05-21T05:55:38.367Z,16.40
2018-05-21T05:58:05.891Z,16.50
2018-05-21T06:00:34.757Z,16.60
2018-05-21T06:03:02.280Z,16.60
2018-05-21T06:05:29.802Z,16.70
2018-05-21T06:07:58.099Z,16.90
2018-05-21T06:10:25.640Z,16.80
2018-05-21T06:12:55.740Z,17.10
2018-05-21T06:15:23.245Z,17.00
2018-05-21T06:17:50.807Z,17.10
2018-05-21T06:20:18.325Z,17.20
2018-05-21T06:22:46.603Z,17.10
2018-05-21T06:25:15.274Z,17.10
2018-05-21T06:27:43.264Z,17.10
2018-05-21T06:30:11.549Z,17.40
2018-05-21T06:32:40.618Z,17.50
2018-05-21T06:35:09.073Z,17.50
2018-05-21T06:37:36.569Z,17.70
2018-05-21T06:40:04.067Z,17.60
2018-05-21T06:42:31.601Z,17.70
2018-05-21T06:44:59.868Z,17.70
2018-05-21T06:47:28.132Z,17.70
2018-05-21T06:49:55.660Z,17.70
2018-05-21T06:52:23.156Z,17.80
2018-05-21T06:54:50.687Z,17.70
2018-05-21T06:57:18.293Z,17.60
2018-05-21T06:59:46.914Z,17.60
2018-05-21T07:02:14.347Z,17.50
2018-05-21T07:04:41.869Z,17.70
2018-05-21T07:07:09.364Z,17.60
2018-05-21T07:09:36.877Z,17.70
2018-05-21T07:12:04.417Z,17.60
2018-05-21T07:14:31.929Z,17.60
2018-05-21T07:17:00.205Z,17.60
2018-05-21T07:19:28.529Z,17.80
2018-05-21T07:21:56.037Z,17.80
2018-05-21T07:24:25.328Z,17.90
2018-05-21T07:26:53.557Z,17.90
2018-05-21T07:29:21.060Z,17.90
2018-05-21T07:31:48.583Z,18.00
2018-05-21T07:34:16.115Z,18.00
2018-05-21T07:36:43.619Z,18.10
2018-05-21T07:39:11.150Z,18.00
2018-05-21T07:41:38.715Z,18.10
2018-05-21T07:44:06.231Z,18.10
2018-05-21T07:46:34.521Z,18.20
2018-05-21T07:49:02.031Z,18.20
2018-05-21T07:51:30.147Z,18.50
2018-05-21T07:53:58.424Z,18.50
2018-05-21T07:56:26.693Z,18.60
2018-05-21T07:58:55.141Z,18.60
2018-05-21T08:01:23.112Z,18.60
2018-05-21T08:03:50.613Z,18.70
2018-05-21T08:06:21.693Z,18.90
2018-05-21T08:08:49.210Z,18.80
2018-05-21T08:11:17.469Z,18.80
2018-05-21T08:13:44.980Z,18.80
2018-05-21T08:16:13.309Z,18.90
2018-05-21T08:18:41.577Z,19.10
2018-05-21T08:21:09.530Z,19.10
2018-05-21T08:23:37.064Z,19.20
2018-05-21T08:26:04.561Z,19.20
2018-05-21T08:28:32.060Z,19.30
2018-05-21T08:30:59.595Z,19.40
2018-05-21T08:33:27.857Z,19.50
2018-05-21T08:35:56.269Z,19.40
2018-05-21T08:38:24.519Z,19.50
2018-05-21T08:40:52.600Z,19.60
2018-05-21T08:43:20.860Z,19.60
2018-05-21T08:45:48.378Z,19.50
2018-05-21T08:48:16.807Z,19.60
2018-05-21T08:50:45.213Z,19.80
2018-05-21T08:53:12.736Z,19.90
2018-05-21T08:55:40.245Z,20.00
2018-05-21T08:58:07.751Z,20.10
2018-05-21T09:00:37.389Z,20.40
2018-05-21T09:03:05.661Z,20.60
2018-05-21T09:05:33.920Z,20.50
2018-05-21T09:08:01.448Z,20.60
2018-05-21T09:10:29.429Z,20.70
2018-05-21T09:12:57.673Z,20.80
2018-05-21T09:15:25.197Z,20.80
2018-05-21T09:17:53.933Z,21.10
2018-05-21T09:20:21.433Z,21.00
2018-05-21T09:22:48.957Z,21.20
2018-05-21T09:25:16.465Z,21.20
2018-05-21T09:27:45.362Z,21.40
2018-05-21T09:30:13.973Z,21.50
2018-05-21T09:32:41.479Z,21.50
2018-05-21T09:35:08.978Z,21.50
2018-05-21T09:37:37.420Z,21.60
2018-05-21T09:40:04.913Z,21.60
2018-05-21T09:42:32.413Z,21.50
2018-05-21T09:45:00.725Z,21.60
2018-05-21T09:47:28.331Z,21.60
2018-05-21T09:49:55.768Z,21.60
2018-05-21T09:52:23.295Z,21.60
2018-05-21T09:54:50.798Z,21.70
2018-05-21T09:57:19.048Z,21.90
2018-05-21T09:59:47.359Z,22.10
2018-05-21T10:02:15.424Z,22.00
2018-05-21T10:04:42.938Z,22.10
2018-05-21T10:07:13.295Z,22.10
2018-05-21T10:09:41.564Z,22.30
2018-05-21T10:12:09.846Z,22.20
2018-05-21T10:14:38.872Z,22.20
2018-05-21T10:17:06.701Z,22.20
2018-05-21T10:19:35.051Z,22.30
2018-05-21T10:22:03.469Z,22.30
2018-05-21T10:24:31.556Z,22.50
2018-05-21T10:26:59.840Z,22.50
2018-05-21T10:29:27.348Z,22.60
2018-05-21T10:31:54.845Z,22.80
2018-05-21T10:34:22.846Z,22.90
2018-05-21T10:36:52.936Z,23.00
2018-05-21T10:39:20.440Z,23.20
2018-05-21T10:41:48.067Z,23.30
2018-05-21T10:44:15.561Z,23.30
2018-05-21T10:46:43.076Z,23.30
2018-05-21T10:49:10.598Z,23.50
2018-05-21T10:51:38.876Z,23.80
2018-05-21T10:54:07.718Z,24.00
2018-05-21T10:56:35.279Z,24.00
2018-05-21T10:59:02.777Z,24.10
2018-05-21T11:01:30.274Z,24.30
2018-05-21T11:03:57.817Z,24.50
2018-05-21T11:06:25.320Z,24.60
2018-05-21T11:08:52.829Z,24.70
2018-05-21T11:11:21.976Z,24.60
2018-05-21T11:13:49.483Z,24.60
2018-05-21T11:16:17.760Z,25.30
2018-05-21T11:18:46.097Z,25.60
2018-05-21T11:21:13.604Z,25.60
2018-05-21T11:23:41.879Z,25.60
2018-05-21T11:26:09.413Z,25.60
2018-05-21T11:28:36.912Z,25.50
2018-05-21T11:31:04.416Z,25.60
2018-05-21T11:33:31.949Z,25.90
2018-05-21T11:35:59.457Z,26.30
2018-05-21T11:38:26.961Z,26.70
2018-05-21T11:40:54.505Z,26.70
2018-05-21T11:43:22.044Z,26.60
2018-05-21T11:45:50.329Z,26.50
2018-05-21T11:48:18.625Z,26.80
2018-05-21T11:50:46.150Z,26.80
2018-05-21T11:53:14.531Z,28.10
2018-05-21T11:55:42.846Z,29.70
2018-05-21T11:58:10.348Z,29.60
2018-05-21T12:00:38.741Z,31.50
2018-05-21T12:03:06.434Z,33.30
2018-05-21T12:05:34.682Z,34.30
2018-05-21T12:08:02.238Z,35.80
2018-05-21T12:10:29.779Z,36.20
2018-05-21T12:12:57.293Z,36.50
2018-05-21T12:15:24.802Z,36.80
2018-05-21T12:17:52.348Z,37.00
2018-05-21T12:20:19.857Z,37.30
2018-05-21T12:22:48.129Z,38.70
2018-05-21T12:25:16.423Z,38.60
2018-05-21T12:27:43.941Z,38.60
2018-05-21T12:30:11.453Z,38.10
2018-05-21T12:32:39.004Z,37.70
2018-05-21T12:35:06.507Z,36.40
2018-05-21T12:37:34.034Z,35.40
2018-05-21T12:40:01.557Z,34.60
2018-05-21T12:42:29.924Z,34.00
2018-05-21T12:44:57.433Z,34.00
2018-05-21T12:47:24.934Z,33.60
2018-05-21T12:49:52.464Z,33.40
2018-05-21T12:52:19.984Z,33.20
2018-05-21T12:54:47.625Z,32.70
2018-05-21T12:57:15.095Z,32.60
2018-05-21T12:59:43.360Z,31.90
2018-05-21T13:02:11.640Z,31.20
2018-05-21T13:04:39.245Z,31.10
2018-05-21T13:07:06.743Z,30.90
2018-05-21T13:09:34.261Z,30.60
2018-05-21T13:12:01.815Z,30.50
2018-05-21T13:14:29.316Z,30.50
2018-05-21T13:16:56.897Z,30.60
2018-05-21T13:19:32.597Z,31.20
2018-05-21T13:22:00.499Z,31.70
2018-05-21T13:24:28.300Z,32.20
2018-05-21T13:26:55.967Z,32.10
2018-05-21T13:29:23.480Z,32.20
2018-05-21T13:31:51.010Z,32.70
2018-05-21T13:34:18.551Z,32.50
2018-05-21T13:36:46.059Z,32.70
2018-05-21T13:39:13.562Z,32.80
2018-05-21T13:41:41.089Z,32.50
2018-05-21T13:44:08.628Z,32.50
2018-05-21T13:46:36.154Z,32.20
2018-05-21T13:49:03.705Z,32.20
2018-05-21T13:51:31.217Z,32.20
2018-05-21T13:53:58.712Z,32.20
2018-05-21T13:56:26.996Z,32.70
2018-05-21T13:58:54.552Z,32.70
2018-05-21T14:01:22.005Z,32.00
2018-05-21T14:03:49.542Z,31.60
2018-05-21T14:06:17.049Z,31.40
2018-05-21T14:08:44.544Z,31.90
2018-05-21T14:11:12.068Z,31.90
2018-05-21T14:13:39.583Z,31.30
2018-05-21T14:16:07.187Z,30.60
2018-05-21T14:18:34.716Z,30.30
2018-05-21T14:21:02.997Z,29.00
2018-05-21T14:23:31.300Z,28.70
2018-05-21T14:25:59.139Z,28.60
2018-05-21T14:28:26.652Z,28.80
2018-05-21T14:30:54.157Z,29.00
2018-05-21T14:33:21.683Z,29.80
2018-05-21T14:35:49.561Z,30.00
2018-05-21T14:38:17.932Z,30.00
2018-05-21T14:40:45.481Z,29.60
2018-05-21T14:43:12.981Z,29.60
2018-05-21T14:45:41.253Z,30.30
2018-05-21T14:48:09.549Z,30.60
2018-05-21T14:50:37.915Z,30.60
2018-05-21T14:53:06.193Z,30.80
2018-05-21T14:55:34.484Z,30.70
2018-05-21T14:58:01.985Z,30.70
2018-05-21T15:00:29.484Z,30.60
2018-05-21T15:02:57.769Z,30.30
2018-05-21T15:05:25.352Z,30.30
2018-05-21T15:07:52.848Z,30.30
2018-05-21T15:10:20.382Z,30.30
2018-05-21T15:12:47.884Z,30.50
2018-05-21T15:15:15.385Z,30.00
2018-05-21T15:17:43.757Z,30.00
2018-05-21T15:23:02.717Z,30.30
2018-05-21T15:25:30.982Z,30.10
2018-05-21T15:27:58.477Z,30.10
2018-05-21T15:30:25.995Z,29.80
2018-05-21T15:32:54.264Z,30.20
2018-05-21T15:35:30.508Z,30.10
2018-05-21T15:37:58.747Z,30.20
2018-05-21T15:40:26.240Z,30.50
2018-05-21T15:42:53.938Z,30.70
2018-05-21T15:45:22.205Z,30.90
2018-05-21T15:47:49.736Z,30.90
2018-05-21T15:50:17.245Z,30.90
2018-05-21T15:52:45.957Z,30.80
2018-05-21T15:55:13.484Z,30.80
2018-05-21T15:57:41.796Z,30.50
2018-05-21T16:00:10.041Z,30.30
2018-05-21T16:02:38.332Z,29.70
2018-05-21T16:05:06.853Z,29.60
2018-05-21T16:07:34.374Z,29.10
2018-05-21T16:10:01.925Z,29.10
2018-05-21T16:12:29.393Z,29.20
2018-05-21T16:14:56.920Z,29.50
2018-05-21T16:17:25.190Z,29.90
2018-05-21T16:19:52.693Z,29.90
2018-05-21T16:22:20.346Z,30.20
2018-05-21T16:24:47.849Z,30.30
2018-05-21T16:27:15.346Z,30.30
2018-05-21T16:29:43.752Z,29.80
2018-05-21T16:32:11.318Z,29.90
2018-05-21T16:34:38.780Z,29.80
2018-05-21T16:37:06.304Z,29.60
2018-05-21T16:39:35.134Z,29.60
2018-05-21T16:42:02.693Z,29.60
2018-05-21T16:44:30.215Z,29.80
2018-05-21T16:46:58.484Z,30.10
2018-05-21T16:49:26.749Z,30.20
2018-05-21T16:51:54.268Z,30.20
2018-05-21T16:54:21.772Z,29.30
2018-05-21T16:56:49.305Z,28.80
2018-05-21T16:59:16.830Z,28.30
2018-05-21T17:01:44.330Z,27.70
2018-05-21T17:04:12.172Z,27.40
2018-05-21T17:06:39.701Z,26.90
2018-05-21T17:09:07.207Z,26.60
2018-05-21T17:11:34.724Z,26.50
2018-05-21T17:14:02.281Z,26.20
2018-05-21T17:16:30.542Z,25.40
2018-05-21T17:18:59.614Z,25.10
2018-05-21T17:21:27.129Z,25.10
2018-05-21T17:23:54.638Z,24.80
2018-05-21T17:26:22.144Z,24.70
2018-05-21T17:28:49.680Z,24.90
2018-05-21T17:31:17.215Z,25.30
2018-05-21T17:33:44.713Z,25.40
2018-05-21T17:36:12.276Z,25.70
2018-05-21T17:38:39.807Z,26.00
2018-05-21T17:41:08.077Z,26.10
2018-05-21T17:43:35.603Z,26.00
2018-05-21T17:46:03.101Z,26.30
2018-05-21T17:48:31.390Z,26.50
2018-05-21T17:50:59.691Z,26.60
2018-05-21T17:53:27.254Z,26.60
2018-05-21T17:55:54.748Z,26.90
2018-05-21T17:58:22.277Z,26.80
2018-05-21T18:00:49.780Z,26.70
2018-05-21T18:03:17.377Z,26.60
2018-05-21T18:05:45.645Z,26.10
2018-05-21T18:08:13.910Z,25.70
2018-05-21T18:10:42.280Z,25.30
2018-05-21T18:13:09.776Z,25.30
2018-05-21T18:15:37.280Z,24.80
2018-05-21T18:18:04.797Z,24.20
2018-05-21T18:20:32.298Z,23.80
2018-05-21T18:22:59.795Z,23.60
2018-05-21T18:25:28.096Z,23.30
2018-05-21T18:27:55.593Z,23.30
2018-05-21T18:30:23.096Z,23.50
2018-05-21T18:32:51.446Z,23.80
2018-05-21T18:35:18.988Z,23.40
2018-05-21T18:37:46.498Z,22.90
2018-05-21T18:40:14.901Z,22.40
2018-05-21T18:42:42.483Z,22.00
2018-05-21T18:45:09.963Z,21.60
2018-05-21T18:47:37.573Z,21.40
2018-05-21T18:50:05.080Z,21.30
2018-05-21T18:52:32.596Z,21.10
2018-05-21T18:55:00.136Z,21.10
2018-05-21T18:57:27.724Z,21.10
2018-05-21T18:59:55.474Z,21.00
2018-05-21T19:02:23.048Z,20.90
2018-05-21T19:04:50.638Z,20.90
2018-05-21T19:07:18.237Z,20.90
2018-05-21T19:09:45.972Z,21.00
2018-05-21T19:12:13.624Z,20.80
2018-05-21T19:14:41.977Z,20.30
2018-05-21T19:17:10.254Z,20.10
2018-05-21T19:19:37.813Z,20.10
2018-05-21T19:22:05.619Z,20.00
2018-05-21T19:24:33.387Z,19.90
2018-05-21T19:29:35.672Z,19.90
2018-05-21T19:32:04.082Z,19.60
2018-05-21T19:34:31.605Z,19.50
2018-05-21T19:36:59.330Z,19.40
2018-05-21T19:39:27.184Z,19.30
2018-05-21T19:41:54.923Z,19.30
2018-05-21T19:44:22.760Z,19.10
2018-05-21T19:46:51.098Z,19.10
2018-05-21T19:49:19.678Z,19.00
2018-05-21T19:51:47.352Z,19.10
2018-05-21T19:54:15.404Z,19.00
2018-05-21T19:56:43.335Z,18.90
2018-05-21T19:59:11.510Z,18.70
2018-05-21T20:01:39.194Z,18.70
2018-05-21T20:04:07.847Z,18.50
2018-05-21T20:06:36.643Z,18.50
2018-05-21T20:09:04.282Z,18.50
2018-05-21T20:11:31.790Z,18.50
2018-05-21T20:13:59.341Z,18.40
2018-05-21T20:16:27.868Z,18.30
2018-05-21T20:18:55.696Z,18.30
2018-05-21T20:21:23.884Z,18.40
2018-05-21T20:23:51.481Z,18.40
2018-05-21T20:26:19.020Z,18.30
2018-05-21T20:28:46.516Z,18.30
2018-05-21T20:31:14.023Z,18.30
2018-05-21T20:33:41.574Z,18.20
2018-05-21T20:36:09.153Z,18.10
2018-05-21T20:38:36.669Z,18.10
2018-05-21T20:41:04.192Z,18.00
2018-05-21T20:43:31.693Z,17.90
2018-05-21T20:45:59.956Z,17.80
2018-05-21T20:48:28.113Z,17.80
2018-05-21T20:50:55.621Z,17.70
2018-05-21T20:53:23.885Z,17.50
2018-05-21T20:55:52.206Z,17.40
2018-05-21T20:58:19.704Z,17.40
2018-05-21T21:00:47.210Z,17.40
2018-05-21T21:03:14.742Z,17.30
2018-05-21T21:05:43.012Z,17.50
2018-05-21T21:08:11.284Z,17.30
2018-05-21T21:10:38.874Z,17.30
2018-05-21T21:13:06.337Z,17.40
2018-05-21T21:15:33.884Z,17.40
2018-05-21T21:18:02.149Z,17.40
2018-05-21T21:20:30.441Z,17.20
2018-05-21T21:22:57.952Z,17.30
2018-05-21T21:25:25.462Z,17.20
2018-05-21T21:27:52.984Z,17.10
2018-05-21T21:30:20.507Z,16.90
2018-05-21T21:32:48.058Z,16.80
2018-05-21T21:35:15.552Z,16.70
2018-05-21T21:37:43.049Z,16.60
2018-05-21T21:40:11.348Z,16.50
2018-05-21T21:42:38.848Z,16.50
2018-05-21T21:45:06.379Z,16.50
2018-05-21T21:47:33.900Z,16.50
2018-05-21T21:50:02.222Z,16.30
2018-05-21T21:52:29.741Z,16.30
2018-05-21T21:54:57.248Z,16.20
2018-05-21T21:57:24.771Z,16.20
2018-05-21T21:59:52.272Z,16.00
2018-05-21T22:02:19.809Z,16.20
2018-05-21T22:04:47.313Z,16.20
2018-05-21T22:07:14.810Z,16.20
2018-05-21T22:09:42.329Z,16.20
2018-05-21T22:12:09.916Z,16.10
2018-05-21T22:14:37.440Z,16.10
2018-05-21T22:17:04.941Z,16.00
2018-05-21T22:19:32.446Z,16.00
2018-05-21T22:22:00.090Z,15.90
2018-05-21T22:24:27.599Z,16.00
2018-05-21T22:26:55.893Z,15.90
2018-05-21T22:29:23.398Z,15.90
2018-05-21T22:31:50.892Z,15.80
2018-05-21T22:34:19.188Z,15.60
2018-05-21T22:36:46.732Z,15.60
2018-05-21T22:39:15.005Z,15.50
2018-05-21T22:41:43.313Z,15.50
2018-05-21T22:44:11.601Z,15.40
2018-05-21T22:46:39.124Z,15.30
2018-05-21T22:49:07.384Z,15.20
2018-05-21T22:51:35.072Z,15.20
2018-05-21T22:54:03.464Z,15.10
2018-05-21T22:56:30.964Z,15.10
2018-05-21T22:58:58.531Z,15.10
2018-05-21T23:01:26.066Z,15.00
2018-05-21T23:03:53.833Z,14.80
2018-05-21T23:06:21.350Z,14.70
2018-05-21T23:08:49.616Z,14.60
2018-05-21T23:11:17.886Z,14.60
2018-05-21T23:13:46.768Z,14.50
2018-05-21T23:16:14.439Z,14.50
2018-05-21T23:18:41.938Z,14.70
2018-05-21T23:21:09.771Z,14.80
2018-05-21T23:23:38.032Z,14.80
2018-05-21T23:26:05.976Z,14.80
2018-05-21T23:28:33.501Z,14.70
2018-05-21T23:31:01.000Z,14.70
2018-05-21T23:33:28.501Z,14.80
2018-05-21T23:35:56.866Z,14.60
2018-05-21T23:38:24.366Z,14.50
2018-05-21T23:40:51.868Z,14.70
2018-05-21T23:43:19.401Z,14.90
2018-05-21T23:45:46.898Z,14.90
2018-05-21T23:48:14.397Z,14.90
2018-05-21T23:50:41.954Z,14.80
2018-05-21T23:53:09.489Z,14.80
2018-05-21T23:55:37.752Z,14.80
2018-05-21T23:58:05.252Z,14.80
